sensor_id;sensor_type;location;lat;lon;timestamp;P1;durP1;ratioP1;P2;durP2;ratioP2
53959;SDS011;39866;48.638;-2.020;2022-09-03T00:08:01;21.77;;;16.17;;
53959;SDS011;39866;48.638;-2.020;2022-09-03T00:11:00;19.60;;;15.35;;
53959;SDS011;39866;48.638;-2.020;2022-09-03T00:13:37;21.98;;;17.00;;
53959;SDS011;39866;48.638;-2.020;2022-09-03T00:16:07;23.20;;;15.80;;
53959;SDS011;39866;48.638;-2.020;2022-09-03T00:18:36;21.95;;;15.93;;
53959;SDS011;39866;48.638;-2.020;2022-09-03T00:21:13;18.98;;;14.65;;
53959;SDS011;39866;48.638;-2.020;2022-09-03T00:23:42;21.58;;;15.10;;
53959;SDS011;39866;48.638;-2.020;2022-09-03T00:28:40;21.50;;;15.02;;
53959;SDS011;39866;48.638;-2.020;2022-09-03T00:31:12;19.88;;;14.48;;
53959;SDS011;39866;48.638;-2.020;2022-09-03T00:33:42;21.30;;;15.25;;
53959;SDS011;39866;48.638;-2.020;2022-09-03T00:38:36;27.65;;;17.27;;
53959;SDS011;39866;48.638;-2.020;2022-09-03T00:46:14;32.03;;;24.42;;
53959;SDS011;39866;48.638;-2.020;2022-09-03T00:51:33;33.30;;;27.27;;
53959;SDS011;39866;48.638;-2.020;2022-09-03T00:54:18;30.40;;;27.00;;
53959;SDS011;39866;48.638;-2.020;2022-09-03T00:57:16;31.30;;;27.60;;
53959;SDS011;39866;48.638;-2.020;2022-09-03T01:00:11;31.10;;;27.63;;
53959;SDS011;39866;48.638;-2.020;2022-09-03T01:08:27;30.75;;;27.52;;
53959;SDS011;39866;48.638;-2.020;2022-09-03T01:16:45;28.38;;;25.30;;
53959;SDS011;39866;48.638;-2.020;2022-09-03T01:22:36;29.33;;;25.20;;
53959;SDS011;39866;48.638;-2.020;2022-09-03T01:33:40;31.95;;;25.30;;
53959;SDS011;39866;48.638;-2.020;2022-09-03T01:36:27;29.77;;;25.17;;
53959;SDS011;39866;48.638;-2.020;2022-09-03T01:39:04;26.50;;;23.00;;
53959;SDS011;39866;48.638;-2.020;2022-09-03T01:41:47;28.33;;;24.30;;
53959;SDS011;39866;48.638;-2.020;2022-09-03T01:50:52;25.45;;;22.67;;
53959;SDS011;39866;48.638;-2.020;2022-09-03T02:04:37;27.42;;;23.05;;
53959;SDS011;39866;48.638;-2.020;2022-09-03T02:07:03;24.48;;;21.73;;
53959;SDS011;39866;48.638;-2.020;2022-09-03T02:09:29;26.75;;;21.98;;
53959;SDS011;39866;48.638;-2.020;2022-09-03T02:11:57;26.23;;;20.55;;
53959;SDS011;39866;48.638;-2.020;2022-09-03T02:14:27;27.90;;;22.73;;
53959;SDS011;39866;48.638;-2.020;2022-09-03T02:16:54;29.05;;;22.38;;
53959;SDS011;39866;48.638;-2.020;2022-09-03T02:19:23;29.60;;;24.75;;
53959;SDS011;39866;48.638;-2.020;2022-09-03T02:21:51;25.88;;;22.58;;
53959;SDS011;39866;48.638;-2.020;2022-09-03T02:24:19;25.60;;;21.63;;
53959;SDS011;39866;48.638;-2.020;2022-09-03T02:26:45;26.65;;;21.92;;
53959;SDS011;39866;48.638;-2.020;2022-09-03T02:29:11;32.10;;;23.88;;
53959;SDS011;39866;48.638;-2.020;2022-09-03T02:31:38;28.15;;;22.73;;
53959;SDS011;39866;48.638;-2.020;2022-09-03T02:34:03;26.05;;;23.23;;
53959;SDS011;39866;48.638;-2.020;2022-09-03T02:36:33;26.23;;;23.25;;
53959;SDS011;39866;48.638;-2.020;2022-09-03T02:39:04;28.25;;;22.85;;
53959;SDS011;39866;48.638;-2.020;2022-09-03T02:41:30;25.10;;;21.85;;
53959;SDS011;39866;48.638;-2.020;2022-09-03T02:46:50;29.45;;;24.90;;
53959;SDS011;39866;48.638;-2.020;2022-09-03T02:49:20;30.55;;;27.15;;
53959;SDS011;39866;48.638;-2.020;2022-09-03T02:51:46;31.80;;;27.38;;
53959;SDS011;39866;48.638;-2.020;2022-09-03T02:54:12;32.53;;;27.67;;
53959;SDS011;39866;48.638;-2.020;2022-09-03T02:56:38;33.13;;;28.27;;
53959;SDS011;39866;48.638;-2.020;2022-09-03T02:59:04;32.90;;;28.58;;
53959;SDS011;39866;48.638;-2.020;2022-09-03T03:01:30;35.05;;;28.42;;
53959;SDS011;39866;48.638;-2.020;2022-09-03T03:03:56;38.60;;;32.63;;
53959;SDS011;39866;48.638;-2.020;2022-09-03T03:06:22;36.42;;;32.42;;
53959;SDS011;39866;48.638;-2.020;2022-09-03T03:08:48;35.35;;;30.75;;
53959;SDS011;39866;48.638;-2.020;2022-09-03T03:11:14;37.85;;;33.15;;
53959;SDS011;39866;48.638;-2.020;2022-09-03T03:13:42;37.55;;;33.05;;
53959;SDS011;39866;48.638;-2.020;2022-09-03T03:16:08;35.58;;;31.75;;
53959;SDS011;39866;48.638;-2.020;2022-09-03T03:18:34;36.15;;;30.48;;
53959;SDS011;39866;48.638;-2.020;2022-09-03T03:21:05;38.10;;;30.17;;
53959;SDS011;39866;48.638;-2.020;2022-09-03T03:23:35;36.60;;;29.88;;
53959;SDS011;39866;48.638;-2.020;2022-09-03T03:26:03;36.15;;;31.83;;
53959;SDS011;39866;48.638;-2.020;2022-09-03T03:28:30;37.65;;;32.92;;
53959;SDS011;39866;48.638;-2.020;2022-09-03T03:31:08;35.30;;;30.50;;
53959;SDS011;39866;48.638;-2.020;2022-09-03T03:33:34;35.15;;;30.80;;
53959;SDS011;39866;48.638;-2.020;2022-09-03T03:36:07;35.65;;;29.88;;
53959;SDS011;39866;48.638;-2.020;2022-09-03T03:38:34;33.08;;;29.48;;
53959;SDS011;39866;48.638;-2.020;2022-09-03T03:41:22;34.30;;;29.85;;
53959;SDS011;39866;48.638;-2.020;2022-09-03T03:43:51;34.88;;;30.65;;
53959;SDS011;39866;48.638;-2.020;2022-09-03T03:46:17;32.92;;;28.20;;
53959;SDS011;39866;48.638;-2.020;2022-09-03T03:48:43;35.28;;;29.58;;
53959;SDS011;39866;48.638;-2.020;2022-09-03T03:51:14;35.20;;;29.35;;
53959;SDS011;39866;48.638;-2.020;2022-09-03T03:53:40;37.35;;;29.90;;
53959;SDS011;39866;48.638;-2.020;2022-09-03T03:56:06;33.83;;;29.25;;
53959;SDS011;39866;48.638;-2.020;2022-09-03T03:58:37;36.45;;;30.83;;
53959;SDS011;39866;48.638;-2.020;2022-09-03T04:01:10;38.95;;;32.00;;
53959;SDS011;39866;48.638;-2.020;2022-09-03T04:03:46;39.35;;;32.72;;
53959;SDS011;39866;48.638;-2.020;2022-09-03T04:06:13;42.28;;;33.05;;
53959;SDS011;39866;48.638;-2.020;2022-09-03T04:08:41;46.75;;;34.35;;
53959;SDS011;39866;48.638;-2.020;2022-09-03T04:11:09;41.97;;;32.22;;
53959;SDS011;39866;48.638;-2.020;2022-09-03T04:13:37;40.70;;;33.30;;
53959;SDS011;39866;48.638;-2.020;2022-09-03T04:16:07;42.75;;;34.17;;
53959;SDS011;39866;48.638;-2.020;2022-09-03T04:18:34;43.00;;;33.47;;
53959;SDS011;39866;48.638;-2.020;2022-09-03T04:21:22;45.92;;;33.33;;
53959;SDS011;39866;48.638;-2.020;2022-09-03T04:23:53;39.53;;;34.03;;
53959;SDS011;39866;48.638;-2.020;2022-09-03T04:26:23;42.45;;;33.10;;
53959;SDS011;39866;48.638;-2.020;2022-09-03T04:28:55;40.10;;;32.90;;
53959;SDS011;39866;48.638;-2.020;2022-09-03T04:31:22;39.42;;;32.25;;
53959;SDS011;39866;48.638;-2.020;2022-09-03T04:33:47;43.38;;;32.80;;
53959;SDS011;39866;48.638;-2.020;2022-09-03T04:36:14;40.55;;;31.98;;
53959;SDS011;39866;48.638;-2.020;2022-09-03T04:38:41;44.47;;;33.22;;
53959;SDS011;39866;48.638;-2.020;2022-09-03T04:41:10;41.80;;;32.67;;
53959;SDS011;39866;48.638;-2.020;2022-09-03T04:43:38;44.35;;;33.42;;
53959;SDS011;39866;48.638;-2.020;2022-09-03T04:46:06;43.10;;;32.80;;
53959;SDS011;39866;48.638;-2.020;2022-09-03T04:48:32;48.05;;;34.13;;
53959;SDS011;39866;48.638;-2.020;2022-09-03T04:51:07;40.80;;;33.35;;
53959;SDS011;39866;48.638;-2.020;2022-09-03T04:53:40;41.25;;;33.95;;
53959;SDS011;39866;48.638;-2.020;2022-09-03T04:56:17;46.50;;;35.70;;
53959;SDS011;39866;48.638;-2.020;2022-09-03T04:58:45;43.65;;;33.78;;
53959;SDS011;39866;48.638;-2.020;2022-09-03T05:01:15;43.15;;;34.47;;
53959;SDS011;39866;48.638;-2.020;2022-09-03T05:03:43;44.17;;;35.00;;
53959;SDS011;39866;48.638;-2.020;2022-09-03T05:06:09;44.60;;;33.70;;
53959;SDS011;39866;48.638;-2.020;2022-09-03T05:08:34;47.67;;;34.60;;
53959;SDS011;39866;48.638;-2.020;2022-09-03T05:11:00;44.78;;;34.90;;
53959;SDS011;39866;48.638;-2.020;2022-09-03T05:13:26;49.13;;;35.38;;
53959;SDS011;39866;48.638;-2.020;2022-09-03T05:15:52;45.60;;;34.45;;
53959;SDS011;39866;48.638;-2.020;2022-09-03T05:18:23;43.95;;;33.80;;
53959;SDS011;39866;48.638;-2.020;2022-09-03T05:20:56;49.53;;;34.28;;
53959;SDS011;39866;48.638;-2.020;2022-09-03T05:23:26;44.75;;;31.42;;
53959;SDS011;39866;48.638;-2.020;2022-09-03T05:26:02;40.88;;;31.95;;
53959;SDS011;39866;48.638;-2.020;2022-09-03T05:28:29;43.25;;;31.20;;
53959;SDS011;39866;48.638;-2.020;2022-09-03T05:31:03;37.78;;;29.27;;
53959;SDS011;39866;48.638;-2.020;2022-09-03T05:33:43;41.40;;;30.95;;
53959;SDS011;39866;48.638;-2.020;2022-09-03T05:36:11;38.28;;;29.55;;
53959;SDS011;39866;48.638;-2.020;2022-09-03T05:38:40;40.13;;;29.33;;
53959;SDS011;39866;48.638;-2.020;2022-09-03T05:41:07;37.50;;;28.83;;
53959;SDS011;39866;48.638;-2.020;2022-09-03T05:43:34;39.72;;;29.38;;
53959;SDS011;39866;48.638;-2.020;2022-09-03T05:46:01;38.95;;;29.45;;
53959;SDS011;39866;48.638;-2.020;2022-09-03T05:48:32;37.97;;;29.17;;
53959;SDS011;39866;48.638;-2.020;2022-09-03T05:51:06;38.72;;;29.65;;
53959;SDS011;39866;48.638;-2.020;2022-09-03T05:53:41;38.83;;;29.45;;
53959;SDS011;39866;48.638;-2.020;2022-09-03T05:56:09;36.05;;;28.20;;
53959;SDS011;39866;48.638;-2.020;2022-09-03T05:58:41;36.00;;;28.05;;
53959;SDS011;39866;48.638;-2.020;2022-09-03T06:03:45;40.08;;;28.50;;
53959;SDS011;39866;48.638;-2.020;2022-09-03T06:06:13;36.90;;;27.38;;
53959;SDS011;39866;48.638;-2.020;2022-09-03T06:08:39;34.72;;;26.92;;
53959;SDS011;39866;48.638;-2.020;2022-09-03T06:11:06;35.90;;;27.35;;
53959;SDS011;39866;48.638;-2.020;2022-09-03T06:13:32;32.67;;;26.25;;
53959;SDS011;39866;48.638;-2.020;2022-09-03T06:15:59;35.35;;;25.88;;
53959;SDS011;39866;48.638;-2.020;2022-09-03T06:18:26;31.52;;;24.13;;
53959;SDS011;39866;48.638;-2.020;2022-09-03T06:20:53;31.00;;;23.20;;
53959;SDS011;39866;48.638;-2.020;2022-09-03T06:23:19;28.02;;;22.42;;
53959;SDS011;39866;48.638;-2.020;2022-09-03T06:25:44;30.02;;;22.63;;
53959;SDS011;39866;48.638;-2.020;2022-09-03T06:28:10;32.20;;;22.08;;
53959;SDS011;39866;48.638;-2.020;2022-09-03T06:30:35;26.17;;;20.55;;
53959;SDS011;39866;48.638;-2.020;2022-09-03T06:33:01;24.83;;;20.05;;
53959;SDS011;39866;48.638;-2.020;2022-09-03T06:35:26;26.15;;;20.77;;
53959;SDS011;39866;48.638;-2.020;2022-09-03T06:37:52;22.05;;;19.52;;
53959;SDS011;39866;48.638;-2.020;2022-09-03T06:40:17;24.98;;;20.17;;
53959;SDS011;39866;48.638;-2.020;2022-09-03T06:42:54;21.48;;;17.75;;
53959;SDS011;39866;48.638;-2.020;2022-09-03T06:45:25;23.17;;;19.05;;
53959;SDS011;39866;48.638;-2.020;2022-09-03T06:47:52;23.48;;;18.17;;
53959;SDS011;39866;48.638;-2.020;2022-09-03T06:50:17;21.35;;;17.63;;
53959;SDS011;39866;48.638;-2.020;2022-09-03T06:52:43;23.42;;;19.55;;
53959;SDS011;39866;48.638;-2.020;2022-09-03T06:55:08;19.40;;;17.08;;
53959;SDS011;39866;48.638;-2.020;2022-09-03T06:57:33;20.27;;;16.60;;
53959;SDS011;39866;48.638;-2.020;2022-09-03T06:59:59;19.08;;;15.90;;
53959;SDS011;39866;48.638;-2.020;2022-09-03T07:02:26;17.02;;;14.43;;
53959;SDS011;39866;48.638;-2.020;2022-09-03T07:04:51;21.08;;;16.50;;
53959;SDS011;39866;48.638;-2.020;2022-09-03T07:07:17;21.23;;;16.65;;
53959;SDS011;39866;48.638;-2.020;2022-09-03T07:09:42;17.15;;;15.27;;
53959;SDS011;39866;48.638;-2.020;2022-09-03T07:12:07;21.77;;;15.95;;
53959;SDS011;39866;48.638;-2.020;2022-09-03T07:14:35;20.40;;;16.33;;
53959;SDS011;39866;48.638;-2.020;2022-09-03T07:17:00;18.42;;;14.98;;
53959;SDS011;39866;48.638;-2.020;2022-09-03T07:19:25;17.38;;;13.85;;
53959;SDS011;39866;48.638;-2.020;2022-09-03T07:21:51;17.10;;;14.13;;
53959;SDS011;39866;48.638;-2.020;2022-09-03T07:24:17;21.40;;;16.30;;
53959;SDS011;39866;48.638;-2.020;2022-09-03T07:26:46;20.88;;;15.82;;
53959;SDS011;39866;48.638;-2.020;2022-09-03T07:29:13;21.48;;;17.00;;
53959;SDS011;39866;48.638;-2.020;2022-09-03T07:31:40;24.73;;;17.15;;
53959;SDS011;39866;48.638;-2.020;2022-09-03T07:34:08;21.05;;;16.17;;
53959;SDS011;39866;48.638;-2.020;2022-09-03T07:36:44;19.95;;;16.95;;
53959;SDS011;39866;48.638;-2.020;2022-09-03T07:39:12;21.38;;;17.38;;
53959;SDS011;39866;48.638;-2.020;2022-09-03T07:41:39;24.88;;;18.17;;
53959;SDS011;39866;48.638;-2.020;2022-09-03T07:44:08;18.50;;;13.73;;
53959;SDS011;39866;48.638;-2.020;2022-09-03T07:46:34;16.27;;;13.45;;
53959;SDS011;39866;48.638;-2.020;2022-09-03T07:49:02;16.67;;;13.63;;
53959;SDS011;39866;48.638;-2.020;2022-09-03T07:51:29;16.60;;;14.90;;
53959;SDS011;39866;48.638;-2.020;2022-09-03T07:53:57;20.90;;;15.55;;
53959;SDS011;39866;48.638;-2.020;2022-09-03T07:56:24;21.90;;;16.55;;
53959;SDS011;39866;48.638;-2.020;2022-09-03T07:58:51;22.23;;;16.70;;
53959;SDS011;39866;48.638;-2.020;2022-09-03T08:01:18;19.77;;;15.23;;
53959;SDS011;39866;48.638;-2.020;2022-09-03T08:03:45;23.90;;;17.80;;
53959;SDS011;39866;48.638;-2.020;2022-09-03T08:06:13;22.13;;;16.02;;
53959;SDS011;39866;48.638;-2.020;2022-09-03T08:08:39;22.58;;;17.50;;
53959;SDS011;39866;48.638;-2.020;2022-09-03T08:11:06;20.70;;;17.35;;
53959;SDS011;39866;48.638;-2.020;2022-09-03T08:13:35;21.90;;;17.70;;
53959;SDS011;39866;48.638;-2.020;2022-09-03T08:16:01;22.15;;;17.10;;
53959;SDS011;39866;48.638;-2.020;2022-09-03T08:18:27;19.40;;;15.52;;
53959;SDS011;39866;48.638;-2.020;2022-09-03T08:20:59;20.20;;;14.95;;
53959;SDS011;39866;48.638;-2.020;2022-09-03T08:23:24;21.33;;;15.57;;
53959;SDS011;39866;48.638;-2.020;2022-09-03T08:25:57;18.60;;;14.82;;
53959;SDS011;39866;48.638;-2.020;2022-09-03T08:28:26;22.33;;;16.08;;
53959;SDS011;39866;48.638;-2.020;2022-09-03T08:30:51;19.27;;;15.20;;
53959;SDS011;39866;48.638;-2.020;2022-09-03T08:33:17;20.63;;;14.48;;
53959;SDS011;39866;48.638;-2.020;2022-09-03T08:36:01;19.55;;;15.27;;
53959;SDS011;39866;48.638;-2.020;2022-09-03T08:38:49;17.67;;;13.30;;
53959;SDS011;39866;48.638;-2.020;2022-09-03T08:41:20;17.70;;;13.20;;
53959;SDS011;39866;48.638;-2.020;2022-09-03T08:46:33;17.27;;;13.27;;
53959;SDS011;39866;48.638;-2.020;2022-09-03T08:49:08;17.38;;;12.95;;
53959;SDS011;39866;48.638;-2.020;2022-09-03T08:51:38;17.52;;;13.20;;
53959;SDS011;39866;48.638;-2.020;2022-09-03T08:54:06;14.70;;;11.70;;
53959;SDS011;39866;48.638;-2.020;2022-09-03T08:56:35;15.63;;;12.25;;
53959;SDS011;39866;48.638;-2.020;2022-09-03T08:59:03;17.40;;;11.68;;
53959;SDS011;39866;48.638;-2.020;2022-09-03T09:04:31;15.52;;;11.38;;
53959;SDS011;39866;48.638;-2.020;2022-09-03T09:07:13;13.57;;;10.35;;
53959;SDS011;39866;48.638;-2.020;2022-09-03T09:09:49;15.60;;;10.07;;
53959;SDS011;39866;48.638;-2.020;2022-09-03T09:21:15;17.98;;;12.63;;
53959;SDS011;39866;48.638;-2.020;2022-09-03T09:23:45;15.52;;;12.32;;
53959;SDS011;39866;48.638;-2.020;2022-09-03T09:26:14;19.77;;;12.90;;
53959;SDS011;39866;48.638;-2.020;2022-09-03T09:28:41;18.88;;;13.88;;
53959;SDS011;39866;48.638;-2.020;2022-09-03T09:31:10;20.48;;;13.32;;
53959;SDS011;39866;48.638;-2.020;2022-09-03T09:33:43;14.23;;;11.05;;
53959;SDS011;39866;48.638;-2.020;2022-09-03T09:36:10;16.77;;;13.10;;
53959;SDS011;39866;48.638;-2.020;2022-09-03T09:38:39;17.83;;;12.85;;
53959;SDS011;39866;48.638;-2.020;2022-09-03T09:41:12;14.63;;;11.85;;
53959;SDS011;39866;48.638;-2.020;2022-09-03T09:43:45;17.70;;;11.73;;
53959;SDS011;39866;48.638;-2.020;2022-09-03T09:48:47;14.75;;;11.18;;
53959;SDS011;39866;48.638;-2.020;2022-09-03T09:51:22;13.45;;;10.55;;
53959;SDS011;39866;48.638;-2.020;2022-09-03T09:54:02;17.83;;;10.80;;
53959;SDS011;39866;48.638;-2.020;2022-09-03T09:56:28;17.08;;;12.32;;
53959;SDS011;39866;48.638;-2.020;2022-09-03T10:01:32;17.40;;;13.65;;
53959;SDS011;39866;48.638;-2.020;2022-09-03T10:04:00;15.70;;;12.43;;
53959;SDS011;39866;48.638;-2.020;2022-09-03T10:06:33;16.75;;;12.80;;
53959;SDS011;39866;48.638;-2.020;2022-09-03T10:09:21;19.00;;;12.32;;
53959;SDS011;39866;48.638;-2.020;2022-09-03T10:14:27;21.13;;;14.77;;
53959;SDS011;39866;48.638;-2.020;2022-09-03T10:17:13;21.83;;;15.00;;
53959;SDS011;39866;48.638;-2.020;2022-09-03T10:19:45;17.30;;;12.70;;
53959;SDS011;39866;48.638;-2.020;2022-09-03T10:22:49;14.30;;;11.48;;
53959;SDS011;39866;48.638;-2.020;2022-09-03T10:28:25;14.95;;;10.20;;
53959;SDS011;39866;48.638;-2.020;2022-09-03T10:36:32;10.05;;;7.75;;
53959;SDS011;39866;48.638;-2.020;2022-09-03T10:47:04;8.93;;;5.65;;
53959;SDS011;39866;48.638;-2.020;2022-09-03T10:50:02;19.70;;;10.30;;
53959;SDS011;39866;48.638;-2.020;2022-09-03T10:55:54;6.32;;;3.70;;
53959;SDS011;39866;48.638;-2.020;2022-09-03T10:58:59;7.55;;;3.63;;
53959;SDS011;39866;48.638;-2.020;2022-09-03T11:04:18;10.13;;;4.20;;
53959;SDS011;39866;48.638;-2.020;2022-09-03T11:07:03;7.45;;;4.80;;
53959;SDS011;39866;48.638;-2.020;2022-09-03T11:12:32;6.88;;;4.60;;
53959;SDS011;39866;48.638;-2.020;2022-09-03T11:15:04;39.67;;;26.88;;
53959;SDS011;39866;48.638;-2.020;2022-09-03T11:17:41;9.13;;;5.82;;
53959;SDS011;39866;48.638;-2.020;2022-09-03T11:20:16;8.02;;;4.22;;
53959;SDS011;39866;48.638;-2.020;2022-09-03T11:22:44;7.15;;;4.40;;
53959;SDS011;39866;48.638;-2.020;2022-09-03T11:25:12;7.07;;;4.32;;
53959;SDS011;39866;48.638;-2.020;2022-09-03T11:30:11;9.50;;;4.35;;
53959;SDS011;39866;48.638;-2.020;2022-09-03T11:37:58;8.35;;;4.80;;
53959;SDS011;39866;48.638;-2.020;2022-09-03T11:40:28;7.97;;;4.80;;
53959;SDS011;39866;48.638;-2.020;2022-09-03T11:43:05;7.38;;;4.80;;
53959;SDS011;39866;48.638;-2.020;2022-09-03T11:47:57;8.35;;;4.55;;
53959;SDS011;39866;48.638;-2.020;2022-09-03T11:50:27;9.63;;;4.40;;
53959;SDS011;39866;48.638;-2.020;2022-09-03T11:53:06;8.60;;;4.10;;
53959;SDS011;39866;48.638;-2.020;2022-09-03T11:58:32;7.47;;;4.53;;
53959;SDS011;39866;48.638;-2.020;2022-09-03T12:01:10;7.10;;;4.03;;
53959;SDS011;39866;48.638;-2.020;2022-09-03T12:03:52;8.95;;;4.10;;
53959;SDS011;39866;48.638;-2.020;2022-09-03T12:19:14;10.57;;;4.60;;
53959;SDS011;39866;48.638;-2.020;2022-09-03T12:21:51;8.05;;;4.22;;
53959;SDS011;39866;48.638;-2.020;2022-09-03T12:24:17;8.13;;;4.35;;
53959;SDS011;39866;48.638;-2.020;2022-09-03T12:26:44;7.55;;;4.20;;
53959;SDS011;39866;48.638;-2.020;2022-09-03T12:29:25;8.07;;;3.88;;
53959;SDS011;39866;48.638;-2.020;2022-09-03T12:31:51;6.43;;;3.75;;
53959;SDS011;39866;48.638;-2.020;2022-09-03T12:34:19;7.32;;;3.80;;
53959;SDS011;39866;48.638;-2.020;2022-09-03T12:36:45;8.38;;;3.50;;
53959;SDS011;39866;48.638;-2.020;2022-09-03T12:44:31;7.80;;;3.70;;
53959;SDS011;39866;48.638;-2.020;2022-09-03T12:49:34;11.60;;;3.85;;
53959;SDS011;39866;48.638;-2.020;2022-09-03T12:52:10;6.00;;;3.13;;
53959;SDS011;39866;48.638;-2.020;2022-09-03T12:55:31;9.18;;;3.53;;
53959;SDS011;39866;48.638;-2.020;2022-09-03T12:57:33;10.48;;;5.78;;
53959;SDS011;39866;48.638;-2.020;2022-09-03T13:00:05;7.05;;;3.40;;
53959;SDS011;39866;48.638;-2.020;2022-09-03T13:02:38;6.72;;;3.42;;
53959;SDS011;39866;48.638;-2.020;2022-09-03T13:05:21;6.40;;;3.35;;
53959;SDS011;39866;48.638;-2.020;2022-09-03T13:07:57;9.40;;;3.63;;
53959;SDS011;39866;48.638;-2.020;2022-09-03T13:10:30;10.07;;;3.20;;
53959;SDS011;39866;48.638;-2.020;2022-09-03T13:13:06;6.55;;;2.72;;
53959;SDS011;39866;48.638;-2.020;2022-09-03T13:18:32;6.00;;;2.63;;
53959;SDS011;39866;48.638;-2.020;2022-09-03T13:21:57;8.15;;;2.50;;
53959;SDS011;39866;48.638;-2.020;2022-09-03T13:35:20;6.00;;;2.60;;
53959;SDS011;39866;48.638;-2.020;2022-09-03T13:40:23;6.50;;;2.88;;
53959;SDS011;39866;48.638;-2.020;2022-09-03T13:42:59;7.43;;;2.92;;
53959;SDS011;39866;48.638;-2.020;2022-09-03T13:45:47;7.28;;;2.58;;
53959;SDS011;39866;48.638;-2.020;2022-09-03T13:48:26;5.82;;;2.50;;
53959;SDS011;39866;48.638;-2.020;2022-09-03T13:51:14;6.32;;;2.63;;
53959;SDS011;39866;48.638;-2.020;2022-09-03T13:53:48;6.17;;;2.47;;
53959;SDS011;39866;48.638;-2.020;2022-09-03T13:59:26;8.45;;;3.03;;
53959;SDS011;39866;48.638;-2.020;2022-09-03T14:21:24;3.80;;;1.50;;
53959;SDS011;39866;48.638;-2.020;2022-09-03T14:26:35;4.63;;;1.67;;
53959;SDS011;39866;48.638;-2.020;2022-09-03T14:37:38;4.63;;;1.80;;
53959;SDS011;39866;48.638;-2.020;2022-09-03T14:43:23;6.47;;;1.73;;
53959;SDS011;39866;48.638;-2.020;2022-09-03T15:01:36;7.15;;;1.70;;
53959;SDS011;39866;48.638;-2.020;2022-09-03T15:09:45;7.57;;;1.80;;
53959;SDS011;39866;48.638;-2.020;2022-09-03T15:12:20;4.00;;;1.63;;
53959;SDS011;39866;48.638;-2.020;2022-09-03T15:14:56;4.70;;;1.52;;
53959;SDS011;39866;48.638;-2.020;2022-09-03T15:20:20;5.72;;;2.00;;
53959;SDS011;39866;48.638;-2.020;2022-09-03T15:25:29;5.90;;;1.77;;
53959;SDS011;39866;48.638;-2.020;2022-09-03T15:31:09;5.60;;;1.70;;
53959;SDS011;39866;48.638;-2.020;2022-09-03T15:33:49;4.93;;;1.70;;
53959;SDS011;39866;48.638;-2.020;2022-09-03T15:36:23;4.28;;;1.60;;
53959;SDS011;39866;48.638;-2.020;2022-09-03T15:38:59;6.82;;;1.77;;
53959;SDS011;39866;48.638;-2.020;2022-09-03T15:44:06;5.22;;;1.77;;
53959;SDS011;39866;48.638;-2.020;2022-09-03T15:51:58;6.60;;;1.93;;
53959;SDS011;39866;48.638;-2.020;2022-09-03T15:57:25;4.45;;;1.63;;
53959;SDS011;39866;48.638;-2.020;2022-09-03T16:00:02;5.40;;;1.75;;
53959;SDS011;39866;48.638;-2.020;2022-09-03T16:02:45;5.72;;;2.10;;
53959;SDS011;39866;48.638;-2.020;2022-09-03T16:05:36;5.65;;;1.90;;
53959;SDS011;39866;48.638;-2.020;2022-09-03T16:08:36;5.18;;;1.60;;
53959;SDS011;39866;48.638;-2.020;2022-09-03T16:19:12;7.75;;;3.40;;
53959;SDS011;39866;48.638;-2.020;2022-09-03T16:21:53;9.93;;;1.70;;
53959;SDS011;39866;48.638;-2.020;2022-09-03T16:27:25;4.70;;;2.00;;
53959;SDS011;39866;48.638;-2.020;2022-09-03T16:30:07;6.07;;;1.83;;
53959;SDS011;39866;48.638;-2.020;2022-09-03T16:35:47;3.83;;;1.42;;
53959;SDS011;39866;48.638;-2.020;2022-09-03T16:46:24;6.65;;;1.77;;
53959;SDS011;39866;48.638;-2.020;2022-09-03T16:51:51;7.85;;;2.40;;
53959;SDS011;39866;48.638;-2.020;2022-09-03T17:00:10;4.88;;;1.80;;
53959;SDS011;39866;48.638;-2.020;2022-09-03T17:02:55;3.42;;;1.50;;
53959;SDS011;39866;48.638;-2.020;2022-09-03T17:14:07;5.80;;;1.67;;
53959;SDS011;39866;48.638;-2.020;2022-09-03T17:25:13;5.25;;;1.60;;
53959;SDS011;39866;48.638;-2.020;2022-09-03T17:36:01;8.10;;;4.05;;
53959;SDS011;39866;48.638;-2.020;2022-09-03T17:39:44;4.88;;;1.60;;
53959;SDS011;39866;48.638;-2.020;2022-09-03T17:44:26;5.00;;;1.40;;
53959;SDS011;39866;48.638;-2.020;2022-09-03T17:58:28;4.28;;;1.67;;
53959;SDS011;39866;48.638;-2.020;2022-09-03T18:01:02;5.28;;;1.42;;
53959;SDS011;39866;48.638;-2.020;2022-09-03T18:03:48;3.30;;;1.38;;
53959;SDS011;39866;48.638;-2.020;2022-09-03T18:11:34;5.22;;;1.77;;
53959;SDS011;39866;48.638;-2.020;2022-09-03T18:20:06;5.47;;;1.92;;
53959;SDS011;39866;48.638;-2.020;2022-09-03T18:22:53;6.97;;;2.20;;
53959;SDS011;39866;48.638;-2.020;2022-09-03T18:25:44;5.65;;;1.65;;
53959;SDS011;39866;48.638;-2.020;2022-09-03T18:29:16;5.70;;;2.40;;
53959;SDS011;39866;48.638;-2.020;2022-09-03T18:31:45;4.63;;;2.15;;
53959;SDS011;39866;48.638;-2.020;2022-09-03T18:37:16;7.65;;;2.15;;
53959;SDS011;39866;48.638;-2.020;2022-09-03T18:40:06;6.40;;;1.95;;
53959;SDS011;39866;48.638;-2.020;2022-09-03T18:43:08;7.25;;;3.20;;
53959;SDS011;39866;48.638;-2.020;2022-09-03T18:46:46;4.28;;;1.95;;
53959;SDS011;39866;48.638;-2.020;2022-09-03T18:49:54;6.55;;;1.85;;
53959;SDS011;39866;48.638;-2.020;2022-09-03T18:52:31;4.55;;;1.92;;
53959;SDS011;39866;48.638;-2.020;2022-09-03T19:01:42;8.63;;;2.47;;
53959;SDS011;39866;48.638;-2.020;2022-09-03T19:07:26;5.68;;;2.35;;
53959;SDS011;39866;48.638;-2.020;2022-09-03T19:10:24;7.60;;;1.95;;
53959;SDS011;39866;48.638;-2.020;2022-09-03T19:19:19;5.57;;;2.13;;
53959;SDS011;39866;48.638;-2.020;2022-09-03T19:22:25;5.90;;;1.77;;
53959;SDS011;39866;48.638;-2.020;2022-09-03T19:25:14;8.77;;;2.65;;
53959;SDS011;39866;48.638;-2.020;2022-09-03T19:46:26;4.68;;;2.05;;
53959;SDS011;39866;48.638;-2.020;2022-09-03T19:52:14;6.10;;;2.20;;
53959;SDS011;39866;48.638;-2.020;2022-09-03T19:55:18;7.38;;;2.22;;
53959;SDS011;39866;48.638;-2.020;2022-09-03T19:58:06;4.80;;;2.00;;
53959;SDS011;39866;48.638;-2.020;2022-09-03T20:03:34;12.50;;;5.00;;
53959;SDS011;39866;48.638;-2.020;2022-09-03T20:06:18;7.28;;;2.10;;
53959;SDS011;39866;48.638;-2.020;2022-09-03T20:09:07;5.55;;;2.10;;
53959;SDS011;39866;48.638;-2.020;2022-09-03T20:11:55;4.68;;;2.00;;
53959;SDS011;39866;48.638;-2.020;2022-09-03T20:14:24;8.48;;;2.50;;
53959;SDS011;39866;48.638;-2.020;2022-09-03T20:16:59;7.78;;;2.17;;
53959;SDS011;39866;48.638;-2.020;2022-09-03T20:21:58;9.13;;;3.35;;
53959;SDS011;39866;48.638;-2.020;2022-09-03T20:27:54;4.25;;;2.10;;
53959;SDS011;39866;48.638;-2.020;2022-09-03T20:30:30;7.30;;;2.40;;
53959;SDS011;39866;48.638;-2.020;2022-09-03T20:52:14;5.22;;;2.33;;
53959;SDS011;39866;48.638;-2.020;2022-09-03T20:57:40;9.02;;;3.20;;
53959;SDS011;39866;48.638;-2.020;2022-09-03T21:00:27;6.10;;;2.47;;
53959;SDS011;39866;48.638;-2.020;2022-09-03T21:03:13;5.78;;;2.28;;
53959;SDS011;39866;48.638;-2.020;2022-09-03T21:08:21;9.73;;;3.95;;
53959;SDS011;39866;48.638;-2.020;2022-09-03T21:11:10;6.60;;;2.05;;
53959;SDS011;39866;48.638;-2.020;2022-09-03T21:13:55;7.13;;;2.30;;
53959;SDS011;39866;48.638;-2.020;2022-09-03T21:19:11;4.93;;;1.98;;
53959;SDS011;39866;48.638;-2.020;2022-09-03T21:22:32;9.63;;;2.20;;
53959;SDS011;39866;48.638;-2.020;2022-09-03T21:25:10;6.55;;;2.33;;
53959;SDS011;39866;48.638;-2.020;2022-09-03T21:27:49;5.60;;;1.95;;
53959;SDS011;39866;48.638;-2.020;2022-09-03T21:30:20;7.05;;;2.25;;
53959;SDS011;39866;48.638;-2.020;2022-09-03T21:32:53;9.30;;;3.42;;
53959;SDS011;39866;48.638;-2.020;2022-09-03T21:38:06;7.18;;;2.20;;